Yerington, Nevada
Current Conditions -  °F | °C
As of 11:55 AM on Monday 22 Dec 2014 (Local Time) from KMEV Reporting Station
Clear Clear  
Wind Chill: 54°   Ceiling: Unl
Heat Index: 54°   Visibility: 10mi
Dew Point: 34°   Wind: 0mph
Humidity: 47%   Direction: NA
Pressure: 30.3"   Gusts: NA
Location:  38.99°N, 119.16°W
Report Text: KMEV 221955Z AUTO 00000KT 10SM CLR 12/01 A3030 RMK AO2
Loading
Personal Weather Stations






























Interactive Weather Map New forecast layout! Learn more

10-Day Weather Forecast

Advertisements
Track Severe Weather on mobile